createdAt,value
2022-11-20T00:01:33.909Z,98108.94
2022-11-20T00:04:01.357Z,98128.13
2022-11-20T00:06:29.475Z,98120.69
2022-11-20T00:08:57.720Z,98119.44
2022-11-20T00:11:26.614Z,98121.56
2022-11-20T00:13:55.071Z,98122.41
2022-11-20T00:16:23.805Z,98121.03
2022-11-20T00:18:53.012Z,98117.81
2022-11-20T00:21:22.085Z,98118.22
2022-11-20T00:23:50.183Z,98117.75
2022-11-20T00:26:19.386Z,98121.19
2022-11-20T00:28:51.011Z,98114.19
2022-11-20T00:31:18.429Z,98121.94
2022-11-20T00:33:46.050Z,98111.69
2022-11-20T00:36:16.305Z,98120.53
2022-11-20T00:38:43.590Z,98111.63
2022-11-20T00:41:12.645Z,98101.91
2022-11-20T00:43:39.946Z,98108.13
2022-11-20T00:46:08.863Z,98110.34
2022-11-20T00:48:36.105Z,98102.66
2022-11-20T00:51:03.116Z,98106.13
2022-11-20T00:53:34.716Z,98093.94
2022-11-20T00:56:07.581Z,98100.69
2022-11-20T00:58:36.742Z,98098.09
2022-11-20T01:01:06.597Z,98093.94
2022-11-20T01:03:34.198Z,98080.19
2022-11-20T01:06:02.553Z,98097.06
2022-11-20T01:08:32.997Z,98086.16
2022-11-20T01:11:01.724Z,98081.22
2022-11-20T01:13:38.125Z,98083.28
2022-11-20T01:16:06.433Z,98074.69
2022-11-20T01:18:33.933Z,98073.84
2022-11-20T01:21:05.514Z,98070.47
2022-11-20T01:23:35.445Z,98074.84
2022-11-20T01:26:03.611Z,98074.06
2022-11-20T01:28:33.737Z,98076.38
2022-11-20T01:31:01.201Z,98077.09
2022-11-20T01:33:28.654Z,98088.22
2022-11-20T01:36:05.525Z,98075.72
2022-11-20T01:38:34.014Z,98072.59
2022-11-20T01:41:01.057Z,98079.34
2022-11-20T01:43:29.505Z,98076.25
2022-11-20T01:46:22.278Z,98081.44
2022-11-20T01:48:55.477Z,98073.66
2022-11-20T01:51:28.653Z,98060.91
2022-11-20T01:54:01.440Z,98061.16
2022-11-20T01:56:29.733Z,98060.38
2022-11-20T01:59:02.492Z,98080.66
2022-11-20T02:01:29.862Z,98074.69
2022-11-20T02:03:57.770Z,98078.06
2022-11-20T02:06:26.917Z,98069.72
2022-11-20T02:08:54.720Z,98073.84
2022-11-20T02:11:23.194Z,98061.13
2022-11-20T02:13:54.250Z,98061.13
2022-11-20T02:16:24.980Z,98063.97
2022-11-20T02:18:53.080Z,98054.84
2022-11-20T02:21:29.612Z,98072.00
2022-11-20T02:24:10.247Z,98054.59
2022-11-20T02:26:43.973Z,98047.06
2022-11-20T02:29:11.124Z,98051.19
2022-11-20T02:31:41.111Z,98044.13
2022-11-20T02:34:08.120Z,98057.66
2022-11-20T02:36:36.918Z,98044.91
2022-11-20T02:39:04.597Z,98043.06
2022-11-20T02:41:34.422Z,98041.78
2022-11-20T02:44:01.775Z,98039.38
2022-11-20T02:46:28.865Z,98037.06
2022-11-20T02:48:55.983Z,98039.66
2022-11-20T02:51:23.406Z,98041.78
2022-11-20T02:53:50.523Z,98034.22
2022-11-20T02:56:17.612Z,98044.63
2022-11-20T02:58:46.005Z,98039.94
2022-11-20T03:01:13.365Z,98041.25
2022-11-20T03:03:40.333Z,98036.59
2022-11-20T03:06:07.750Z,98033.50
2022-11-20T03:08:35.041Z,98032.72
2022-11-20T03:11:07.267Z,98024.13
2022-11-20T03:13:35.204Z,98016.28
2022-11-20T03:16:09.137Z,98017.03
2022-11-20T03:18:36.278Z,98011.31
2022-11-20T03:21:03.370Z,98013.91
2022-11-20T03:23:32.097Z,97998.53
2022-11-20T03:26:09.182Z,98000.63
2022-11-20T03:28:36.246Z,98000.03
2022-11-20T03:31:08.985Z,98007.09
2022-11-20T03:33:35.997Z,97993.78
2022-11-20T03:36:04.870Z,97997.69
2022-11-20T03:38:32.632Z,98003.66
2022-11-20T03:41:01.806Z,97991.38
2022-11-20T03:43:29.115Z,97997.88
2022-11-20T03:45:56.250Z,97998.91
2022-11-20T03:48:24.969Z,98010.94
2022-11-20T03:50:52.057Z,98005.16
2022-11-20T03:53:19.578Z,98003.16
2022-11-20T03:55:46.650Z,98007.28
2022-11-20T03:58:14.468Z,98023.16
2022-11-20T04:00:41.432Z,98009.09
2022-11-20T04:03:08.500Z,98014.03
2022-11-20T04:05:36.967Z,98010.94
2022-11-20T04:08:04.052Z,98011.19
2022-11-20T04:10:31.212Z,98019.28
2022-11-20T04:12:58.440Z,98025.03
2022-11-20T04:15:25.488Z,98012.75
2022-11-20T04:17:52.496Z,98012.50
2022-11-20T04:20:19.431Z,98024.03
2022-11-20T04:22:47.813Z,98027.16
2022-11-20T04:25:14.918Z,98037.06
2022-11-20T04:27:41.809Z,98038.06
2022-11-20T04:30:09.792Z,98045.66
2022-11-20T04:32:36.900Z,98036.03
2022-11-20T04:35:04.190Z,98046.72
2022-11-20T04:37:31.181Z,98037.38
2022-11-20T04:39:59.503Z,98046.50
2022-11-20T04:42:29.259Z,98038.97
2022-11-20T04:44:57.093Z,98036.91
2022-11-20T04:47:24.425Z,98046.84
2022-11-20T04:49:51.451Z,98040.31
2022-11-20T04:52:18.533Z,98037.50
2022-11-20T04:54:45.503Z,98042.16
2022-11-20T04:57:15.604Z,98040.84
2022-11-20T04:59:42.714Z,98046.84
2022-11-20T05:02:10.937Z,98047.59
2022-11-20T05:04:38.037Z,98041.09
2022-11-20T05:07:05.347Z,98049.16
2022-11-20T05:09:32.687Z,98045.25
2022-11-20T05:11:59.778Z,98059.78
2022-11-20T05:14:28.420Z,98045.72
2022-11-20T05:16:55.365Z,98057.94
2022-11-20T05:19:22.675Z,98051.19
2022-11-20T05:21:49.813Z,98063.13
2022-11-20T05:24:16.959Z,98063.13
2022-11-20T05:26:43.985Z,98055.84
2022-11-20T05:29:12.976Z,98053.75
2022-11-20T05:31:41.968Z,98043.59
2022-11-20T05:34:09.288Z,98052.19
2022-11-20T05:36:36.521Z,98063.13
2022-11-20T05:39:03.731Z,98056.88
2022-11-20T05:41:30.817Z,98062.06
2022-11-20T05:43:58.817Z,98067.53
2022-11-20T05:46:28.628Z,98081.34
2022-11-20T05:48:58.933Z,98073.53
2022-11-20T05:51:27.350Z,98086.28
2022-11-20T05:53:54.417Z,98084.22
2022-11-20T05:56:22.918Z,98087.06
2022-11-20T05:58:50.661Z,98083.41
2022-11-20T06:01:19.777Z,98090.91
2022-11-20T06:03:48.669Z,98080.50
2022-11-20T06:06:18.129Z,98079.44
2022-11-20T06:08:45.655Z,98079.94
2022-11-20T06:11:14.149Z,98085.91
2022-11-20T06:13:44.720Z,98078.09
2022-11-20T06:16:12.674Z,98085.31
2022-11-20T06:18:40.076Z,98091.50
2022-11-20T06:21:08.338Z,98081.63
2022-11-20T06:23:37.457Z,98082.69
2022-11-20T06:26:05.519Z,98084.47
2022-11-20T06:28:33.076Z,98088.63
2022-11-20T06:31:00.216Z,98087.34
2022-11-20T06:33:27.391Z,98097.50
2022-11-20T06:36:00.891Z,98101.44
2022-11-20T06:38:29.872Z,98096.72
2022-11-20T06:40:58.352Z,98086.09
2022-11-20T06:43:26.232Z,98083.75
2022-11-20T06:45:54.390Z,98076.22
2022-11-20T06:48:21.848Z,98076.22
2022-11-20T06:50:48.825Z,98079.63
2022-11-20T06:53:15.865Z,98076.00
2022-11-20T06:55:43.720Z,98076.00
2022-11-20T06:58:12.702Z,98086.94
2022-11-20T07:00:39.707Z,98081.75
2022-11-20T07:03:07.255Z,98074.44
2022-11-20T07:05:34.530Z,98091.06
2022-11-20T07:08:01.616Z,98083.97
2022-11-20T07:10:28.737Z,98082.69
2022-11-20T07:12:56.278Z,98087.34
2022-11-20T07:15:26.079Z,98093.78
2022-11-20T07:17:55.406Z,98092.88
2022-11-20T07:20:22.363Z,98099.69
2022-11-20T07:22:54.698Z,98100.28
2022-11-20T07:25:21.653Z,98104.59
2022-11-20T07:27:49.117Z,98125.66
2022-11-20T07:30:16.258Z,98130.16
2022-11-20T07:32:47.969Z,98134.94
2022-11-20T07:35:15.373Z,98135.25
2022-11-20T07:37:42.783Z,98150.41
2022-11-20T07:40:13.218Z,98166.03
2022-11-20T07:42:40.415Z,98165.75
2022-11-20T07:45:07.949Z,98166.13
2022-11-20T07:47:36.712Z,98167.22
2022-11-20T07:50:06.009Z,98178.84
2022-11-20T07:52:33.100Z,98182.50
2022-11-20T07:55:00.161Z,98185.91
2022-11-20T07:57:28.618Z,98183.44
2022-11-20T07:59:55.697Z,98187.69
2022-11-20T08:02:22.790Z,98190.53
2022-11-20T08:04:49.767Z,98197.66
2022-11-20T08:07:18.242Z,98208.09
2022-11-20T08:09:45.215Z,98216.00
2022-11-20T08:12:37.196Z,98217.84
2022-11-20T08:15:09.811Z,98225.38
2022-11-20T08:17:39.669Z,98228.97
2022-11-20T08:20:07.431Z,98231.03
2022-11-20T08:22:36.079Z,98240.59
2022-11-20T08:25:03.197Z,98245.75
2022-11-20T08:27:30.288Z,98233.84
2022-11-20T08:29:57.300Z,98238.44
2022-11-20T08:32:24.468Z,98250.63
2022-11-20T08:34:51.453Z,98262.00
2022-11-20T08:37:20.145Z,98276.22
2022-11-20T08:39:48.681Z,98274.53
2022-11-20T08:42:15.621Z,98276.47
2022-11-20T08:44:44.141Z,98279.50
2022-11-20T08:47:11.116Z,98270.34
2022-11-20T08:49:38.041Z,98277.84
2022-11-20T08:52:05.155Z,98265.97
2022-11-20T08:54:32.081Z,98280.50
2022-11-20T08:57:00.669Z,98285.69
2022-11-20T08:59:58.374Z,98279.97
2022-11-20T09:02:14.600Z,98284.63
2022-11-20T09:04:41.786Z,98282.97
2022-11-20T09:07:08.797Z,98267.84
2022-11-20T09:09:35.834Z,98261.38
2022-11-20T09:12:05.273Z,98274.06
2022-11-20T09:14:32.578Z,98275.69
2022-11-20T09:16:59.611Z,98261.91
2022-11-20T09:19:42.116Z,98258.50
2022-11-20T09:22:09.772Z,98252.44
2022-11-20T09:24:36.750Z,98256.22
2022-11-20T09:27:06.552Z,98244.56
2022-11-20T09:29:33.561Z,98240.41
2022-11-20T09:32:00.580Z,98251.53
2022-11-20T09:34:27.635Z,98239.09
2022-11-20T09:36:57.901Z,98248.56
2022-11-20T09:39:25.543Z,98247.75
2022-11-20T09:42:24.774Z,98251.63
2022-11-20T09:45:16.533Z,98249.34
2022-11-20T09:48:00.637Z,98236.75
2022-11-20T09:50:33.997Z,98245.28
2022-11-20T09:53:14.572Z,98244.53
2022-11-20T09:55:42.610Z,98231.03
2022-11-20T09:58:19.046Z,98241.84
2022-11-20T10:00:47.062Z,98246.94
2022-11-20T10:03:19.016Z,98236.31
2022-11-20T10:05:49.122Z,98237.25
2022-11-20T10:08:21.245Z,98231.03
2022-11-20T10:10:54.400Z,98220.25
2022-11-20T10:13:35.024Z,98210.22
2022-11-20T10:16:16.937Z,98208.38
2022-11-20T10:19:00.398Z,98210.88
2022-11-20T10:21:37.031Z,98209.28
2022-11-20T10:24:31.203Z,98224.22
2022-11-20T10:27:07.555Z,98215.41
2022-11-20T10:29:40.337Z,98213.53
2022-11-20T10:32:14.914Z,98220.13
2022-11-20T10:34:49.724Z,98218.44
2022-11-20T10:37:20.128Z,98207.41
2022-11-20T10:39:56.969Z,98202.47
2022-11-20T10:42:34.864Z,98186.81
2022-11-20T10:45:16.234Z,98199.91
2022-11-20T10:47:43.172Z,98209.72
2022-11-20T10:50:21.663Z,98199.22
2022-11-20T10:53:00.513Z,98214.09
2022-11-20T10:55:34.749Z,98220.88
2022-11-20T10:58:10.265Z,98210.38
2022-11-20T11:00:39.526Z,98202.69
2022-11-20T11:03:21.803Z,98199.59
2022-11-20T11:05:51.997Z,98187.69
2022-11-20T11:08:20.322Z,98182.81
2022-11-20T11:10:52.469Z,98195.81
2022-11-20T11:13:23.094Z,98184.69
2022-11-20T11:15:52.101Z,98187.81
2022-11-20T11:18:27.041Z,98185.47
2022-11-20T11:20:55.415Z,98183.72
2022-11-20T11:23:34.848Z,98193.56
2022-11-20T11:26:04.756Z,98194.09
2022-11-20T11:28:32.176Z,98198.19
2022-11-20T11:31:00.686Z,98184.44
2022-11-20T11:33:29.606Z,98190.13
2022-11-20T11:35:58.428Z,98187.25
2022-11-20T11:38:31.428Z,98191.88
2022-11-20T11:40:59.378Z,98181.78
2022-11-20T11:43:47.280Z,98181.53
2022-11-20T11:46:26.630Z,98182.31
2022-11-20T11:48:58.857Z,98170.59
2022-11-20T11:51:30.224Z,98167.97
2022-11-20T11:53:59.530Z,98163.56
2022-11-20T11:56:28.281Z,98154.50
2022-11-20T11:59:03.721Z,98165.41
2022-11-20T12:01:37.883Z,98164.06
2022-11-20T12:04:18.597Z,98163.00
2022-11-20T12:06:49.410Z,98167.84
2022-11-20T12:09:19.553Z,98160.34
2022-11-20T12:11:51.026Z,98158.56
2022-11-20T12:14:24.915Z,98163.75
2022-11-20T12:16:54.319Z,98155.78
2022-11-20T12:19:21.633Z,98157.59
2022-11-20T12:22:00.297Z,98150.84
2022-11-20T12:24:44.956Z,98156.28
2022-11-20T12:27:45.547Z,98159.19
2022-11-20T12:30:15.385Z,98164.41
2022-11-20T12:33:29.451Z,98159.25
2022-11-20T12:36:08.924Z,98161.16
2022-11-20T12:39:09.965Z,98173.06
2022-11-20T12:42:07.485Z,98181.66
2022-11-20T12:45:04.957Z,98176.19
2022-11-20T12:47:37.272Z,98179.03
2022-11-20T12:50:14.985Z,98162.69
2022-11-20T12:52:48.646Z,98179.50
2022-11-20T12:55:29.507Z,98193.50
2022-11-20T12:58:01.441Z,98185.19
2022-11-20T13:00:28.611Z,98195.25
2022-11-20T13:03:24.857Z,98185.34
2022-11-20T13:06:02.838Z,98196.38
2022-11-20T13:08:34.397Z,98222.25
2022-11-20T13:11:08.633Z,98238.47
2022-11-20T13:13:44.555Z,98235.47
2022-11-20T13:16:18.081Z,98218.19
2022-11-20T13:18:46.314Z,98212.03
2022-11-20T13:21:20.390Z,98226.63
2022-11-20T13:23:47.627Z,98218.81
2022-11-20T13:26:18.316Z,98211.00
2022-11-20T13:28:46.757Z,98214.59
2022-11-20T13:31:30.313Z,98208.66
2022-11-20T13:33:59.066Z,98214.59
2022-11-20T13:36:28.986Z,98211.31
2022-11-20T13:38:57.248Z,98212.56
2022-11-20T13:41:38.911Z,98206.84
2022-11-20T13:44:14.041Z,98191.56
2022-11-20T13:46:44.360Z,98197.41
2022-11-20T13:49:19.019Z,98189.78
2022-11-20T13:51:48.918Z,98209.03
2022-11-20T13:54:35.345Z,98221.91
2022-11-20T13:57:12.817Z,98216.63
2022-11-20T13:59:51.246Z,98221.47
2022-11-20T14:02:21.104Z,98219.31
2022-11-20T14:04:50.205Z,98211.19
2022-11-20T14:07:21.590Z,98212.13
2022-11-20T14:09:53.290Z,98218.03
2022-11-20T14:12:22.391Z,98215.44
2022-11-20T14:14:51.698Z,98218.25
2022-11-20T14:17:21.631Z,98223.91
2022-11-20T14:19:51.507Z,98208.31
2022-11-20T14:22:22.180Z,98209.03
2022-11-20T14:24:50.292Z,98221.06
2022-11-20T14:27:19.480Z,98238.63
2022-11-20T14:29:48.882Z,98231.16
2022-11-20T14:32:18.165Z,98200.97
2022-11-20T14:34:48.271Z,98194.16
2022-11-20T14:37:21.688Z,98212.47
2022-11-20T14:39:52.876Z,98204.19
2022-11-20T14:42:22.876Z,98194.41
2022-11-20T14:44:51.246Z,98179.47
2022-11-20T14:47:21.366Z,98164.16
2022-11-20T14:49:49.098Z,98176.41
2022-11-20T14:52:17.826Z,98200.66
2022-11-20T14:54:47.229Z,98202.78
2022-11-20T14:57:26.554Z,98191.53
2022-11-20T15:00:06.873Z,98184.63
2022-11-20T15:02:34.275Z,98197.31
2022-11-20T15:05:06.345Z,98198.38
2022-11-20T15:07:35.369Z,98200.50
2022-11-20T15:10:06.514Z,98215.53
2022-11-20T15:12:36.070Z,98241.88
2022-11-20T15:15:04.429Z,98287.59
2022-11-20T15:17:32.421Z,98344.78
2022-11-20T15:20:00.884Z,98354.88
2022-11-20T15:22:27.801Z,98347.97
2022-11-20T15:24:54.872Z,98324.16
2022-11-20T15:27:23.260Z,98282.88
2022-11-20T15:29:50.238Z,98253.72
2022-11-20T15:32:17.370Z,98300.06
2022-11-20T15:34:44.366Z,98331.84
2022-11-20T15:37:11.293Z,98327.31
2022-11-20T15:39:38.397Z,98291.19
2022-11-20T15:42:05.585Z,98267.63
2022-11-20T15:44:33.985Z,98269.56
2022-11-20T15:47:00.929Z,98280.75
2022-11-20T15:49:27.936Z,98268.19
2022-11-20T15:51:55.009Z,98263.00
2022-11-20T15:54:23.981Z,98276.94
2022-11-20T15:56:54.400Z,98286.47
2022-11-20T15:59:21.654Z,98286.47
2022-11-20T16:01:50.277Z,98277.88
2022-11-20T16:04:18.204Z,98282.94
2022-11-20T16:06:45.258Z,98291.69
2022-11-20T16:09:12.238Z,98302.81
2022-11-20T16:11:39.590Z,98309.59
2022-11-20T16:14:26.104Z,98297.25
2022-11-20T16:16:54.885Z,98295.94
2022-11-20T16:19:21.827Z,98304.22
2022-11-20T16:21:48.981Z,98312.28
2022-11-20T16:24:17.342Z,98320.03
2022-11-20T16:26:44.290Z,98325.72
2022-11-20T16:29:11.307Z,98332.78
2022-11-20T16:31:38.845Z,98325.91
2022-11-20T16:34:12.336Z,98336.00
2022-11-20T16:36:41.332Z,98341.72
2022-11-20T16:39:10.218Z,98360.03
2022-11-20T16:41:37.642Z,98362.53
2022-11-20T16:44:10.179Z,98345.16
2022-11-20T16:46:38.033Z,98337.31
2022-11-20T16:49:07.559Z,98327.34
2022-11-20T16:51:36.162Z,98319.63
2022-11-20T16:54:04.121Z,98291.78
2022-11-20T16:56:31.258Z,98277.75
2022-11-20T16:58:59.917Z,98277.03
2022-11-20T17:01:28.937Z,98250.13
2022-11-20T17:03:57.678Z,98208.59
2022-11-20T17:06:28.037Z,98226.09
2022-11-20T17:08:55.883Z,98218.97
2022-11-20T17:11:23.550Z,98231.59
2022-11-20T17:13:50.544Z,98250.44
2022-11-20T17:16:20.233Z,98251.88
2022-11-20T17:18:47.205Z,98269.56
2022-11-20T17:21:14.127Z,98274.03
2022-11-20T17:23:44.712Z,98296.56
2022-11-20T17:26:17.858Z,98301.50
2022-11-20T17:28:46.159Z,98311.94
2022-11-20T17:31:15.674Z,98309.94
2022-11-20T17:33:45.328Z,98303.34
2022-11-20T17:36:13.886Z,98299.91
2022-11-20T17:38:42.812Z,98292.84
2022-11-20T17:41:11.916Z,98290.47
2022-11-20T17:43:39.135Z,98293.78
2022-11-20T17:46:07.984Z,98298.59
2022-11-20T17:48:35.844Z,98292.09
2022-11-20T17:51:04.633Z,98289.97
2022-11-20T17:53:34.797Z,98274.19
2022-11-20T17:56:22.717Z,98282.69
2022-11-20T17:58:49.880Z,98274.97
2022-11-20T18:01:17.702Z,98279.56
2022-11-20T18:03:44.991Z,98284.72
2022-11-20T18:06:13.981Z,98267.91
2022-11-20T18:08:41.092Z,98266.78
2022-11-20T18:11:13.574Z,98256.72
2022-11-20T18:13:59.280Z,98248.97
2022-11-20T18:16:26.248Z,98244.63
2022-11-20T18:18:54.590Z,98227.47
2022-11-20T18:21:21.571Z,98211.78
2022-11-20T18:23:48.528Z,98203.16
2022-11-20T18:26:18.127Z,98212.31
2022-11-20T18:28:45.349Z,98222.16
2022-11-20T18:31:13.032Z,98233.59
2022-11-20T18:33:40.293Z,98242.88
2022-11-20T18:36:11.200Z,98248.34
2022-11-20T18:38:40.792Z,98242.31
2022-11-20T18:41:08.029Z,98244.13
2022-11-20T18:43:55.814Z,98243.56
2022-11-20T18:46:22.838Z,98243.66
2022-11-20T18:48:49.792Z,98235.47
2022-11-20T18:51:17.115Z,98225.16
2022-11-20T18:53:47.297Z,98222.03
2022-11-20T18:56:14.796Z,98228.75
2022-11-20T18:58:43.188Z,98223.13
2022-11-20T19:01:10.172Z,98228.38
2022-11-20T19:03:37.149Z,98226.91
2022-11-20T19:06:04.270Z,98236.75
2022-11-20T19:08:34.146Z,98227.00
2022-11-20T19:11:06.427Z,98222.41
2022-11-20T19:13:33.517Z,98208.25
2022-11-20T19:16:04.114Z,98192.00
2022-11-20T19:18:31.033Z,98196.84
2022-11-20T19:20:58.288Z,98188.25
2022-11-20T19:23:25.259Z,98205.09
2022-11-20T19:25:52.235Z,98215.16
2022-11-20T19:28:19.199Z,98223.22
2022-11-20T19:30:46.254Z,98214.78
2022-11-20T19:33:14.639Z,98193.94
2022-11-20T19:35:41.553Z,98196.75
2022-11-20T19:38:08.589Z,98219.19
2022-11-20T19:40:35.504Z,98221.75
2022-11-20T19:43:02.478Z,98208.63
2022-11-20T19:45:29.408Z,98201.44
2022-11-20T19:48:07.822Z,98187.00
2022-11-20T19:50:36.797Z,98197.53
2022-11-20T19:53:03.722Z,98190.81
2022-11-20T19:55:30.653Z,98175.09
2022-11-20T19:57:57.571Z,98172.75
2022-11-20T20:00:31.234Z,98178.69
2022-11-20T20:02:59.787Z,98180.50
2022-11-20T20:05:26.768Z,98177.13
2022-11-20T20:07:55.056Z,98177.34
2022-11-20T20:10:22.181Z,98167.03
2022-11-20T20:12:49.138Z,98171.19
2022-11-20T20:15:16.098Z,98169.84
2022-11-20T20:17:42.992Z,98180.97
2022-11-20T20:20:10.932Z,98170.88
2022-11-20T20:22:37.916Z,98176.78
2022-11-20T20:25:07.613Z,98164.69
2022-11-20T20:27:36.750Z,98155.19
2022-11-20T20:30:04.614Z,98149.44
2022-11-20T20:32:32.170Z,98147.09
2022-11-20T20:34:59.090Z,98140.16
2022-11-20T20:37:26.125Z,98138.13
2022-11-20T20:39:53.061Z,98132.97
2022-11-20T20:42:21.423Z,98133.19
2022-11-20T20:45:06.402Z,98128.81
2022-11-20T20:47:34.293Z,98130.88
2022-11-20T20:50:01.613Z,98122.34
2022-11-20T20:52:28.567Z,98122.34
2022-11-20T20:54:55.741Z,98125.94
2022-11-20T20:57:24.589Z,98122.81
2022-11-20T20:59:55.481Z,98124.06
2022-11-20T21:02:23.399Z,98117.31
2022-11-20T21:04:50.634Z,98120.16
2022-11-20T21:07:18.380Z,98114.66
2022-11-20T21:09:45.502Z,98102.22
2022-11-20T21:12:12.488Z,98100.69
2022-11-20T21:14:40.873Z,98086.22
2022-11-20T21:17:13.703Z,98082.06
2022-11-20T21:19:42.089Z,98087.69
2022-11-20T21:22:09.018Z,98089.09
2022-11-20T21:24:36.955Z,98089.00
2022-11-20T21:27:05.661Z,98097.75
2022-11-20T21:29:32.822Z,98100.88
2022-11-20T21:32:01.138Z,98092.13
2022-11-20T21:34:28.213Z,98085.94
2022-11-20T21:36:55.170Z,98073.84
2022-11-20T21:39:22.328Z,98075.13
2022-11-20T21:41:49.252Z,98064.81
2022-11-20T21:44:30.636Z,98060.41
2022-11-20T21:46:58.678Z,98051.44
2022-11-20T21:49:27.027Z,98040.81
2022-11-20T21:51:53.990Z,98044.94
2022-11-20T21:54:21.057Z,98039.94
2022-11-20T21:56:48.189Z,98046.34
2022-11-20T21:59:15.108Z,98048.69
2022-11-20T22:01:42.142Z,98032.22
2022-11-20T22:04:13.604Z,98023.47
2022-11-20T22:06:42.077Z,98033.53
2022-11-20T22:09:10.253Z,98021.97
2022-11-20T22:11:37.309Z,98006.28
2022-11-20T22:14:22.431Z,98003.72
2022-11-20T22:16:50.786Z,97985.13
2022-11-20T22:19:19.143Z,97982.78
2022-11-20T22:21:47.876Z,97971.47
2022-11-20T22:24:18.078Z,97962.94
2022-11-20T22:26:45.122Z,97961.94
2022-11-20T22:29:14.808Z,97956.78
2022-11-20T22:31:42.167Z,97959.38
2022-11-20T22:34:11.486Z,97939.50
2022-11-20T22:36:39.270Z,97932.00
2022-11-20T22:39:07.702Z,97932.00
2022-11-20T22:41:34.845Z,97929.66
2022-11-20T22:44:03.175Z,97918.28
2022-11-20T22:46:33.133Z,97918.03
2022-11-20T22:49:01.649Z,97908.75
2022-11-20T22:51:30.013Z,97912.59
2022-11-20T22:53:57.041Z,97907.91
2022-11-20T22:56:25.909Z,97905.63
2022-11-20T22:58:54.374Z,97895.63
2022-11-20T23:01:23.273Z,97883.84
2022-11-20T23:03:51.820Z,97882.34
2022-11-20T23:06:20.264Z,97883.13
2022-11-20T23:08:48.384Z,97870.00
2022-11-20T23:11:17.339Z,97860.69
2022-11-20T23:13:46.605Z,97851.41
2022-11-20T23:16:15.450Z,97838.53
2022-11-20T23:18:43.255Z,97824.38
2022-11-20T23:21:11.640Z,97824.16
2022-11-20T23:23:39.040Z,97807.13
2022-11-20T23:26:07.812Z,97798.59
2022-11-20T23:28:35.403Z,97814.88
2022-11-20T23:31:04.421Z,97795.56
2022-11-20T23:33:31.393Z,97786.81
2022-11-20T23:35:58.388Z,97783.50
2022-11-20T23:38:25.587Z,97760.84
2022-11-20T23:40:52.889Z,97739.22
2022-11-20T23:43:20.872Z,97719.13
2022-11-20T23:45:49.530Z,97701.09
2022-11-20T23:48:18.885Z,97697.97
2022-11-20T23:50:46.110Z,97709.06
2022-11-20T23:53:14.434Z,97695.94
2022-11-20T23:55:45.076Z,97682.81
2022-11-20T23:58:12.320Z,97682.00
